Time;durP1;ratioP1;P1;durP2;ratioP2;P2;SDS_P1;SDS_P2;PMS_P1;PMS_P2;Temp;Humidity;BMP_temperature;BMP_pressure;BME280_temperature;BME280_humidity;BME280_pressure;Samples;Min_cycle;Max_cycle;Signal;HPM_P1;HPM_P2
2021/05/20 00:01:11;;;;;;;9.40;3.17;;;;;;;18.55;62.30;98764.09;5062002;28;20020;-69
2021/05/20 00:03:36;;;;;;;9.85;3.30;;;;;;;18.49;62.02;98755.13;5062239;28;20067;-72
2021/05/20 00:06:02;;;;;;;13.18;3.28;;;;;;;18.49;61.84;98767.72;5056725;28;20083;-74
2021/05/20 00:08:27;;;;;;;5.78;3.05;;;;;;;18.40;62.95;98778.00;5058223;28;20029;-68
2021/05/20 00:10:53;;;;;;;6.72;3.17;;;;;;;18.10;63.32;98775.47;5056520;28;20033;-68
2021/05/20 00:13:18;;;;;;;5.50;2.85;;;;;;;18.18;63.67;98783.16;5057970;28;20033;-68
2021/05/20 00:15:43;;;;;;;9.57;3.45;;;;;;;18.16;63.82;98785.25;5061114;28;20033;-68
2021/05/20 00:18:09;;;;;;;9.75;3.20;;;;;;;18.14;63.67;98767.78;5059716;28;20269;-69
2021/05/20 00:20:35;;;;;;;6.35;3.50;;;;;;;18.35;62.82;98783.25;5057937;28;20304;-74
2021/05/20 00:23:00;;;;;;;6.00;3.10;;;;;;;18.29;63.08;98781.53;5064317;28;20086;-68
2021/05/20 00:25:25;;;;;;;4.43;2.90;;;;;;;18.09;62.78;98765.81;5064499;28;20047;-74
2021/05/20 00:27:51;;;;;;;7.00;2.80;;;;;;;18.09;62.79;98781.88;5059050;28;20200;-75
2021/05/20 00:30:16;;;;;;;6.18;2.83;;;;;;;17.99;63.14;98775.47;5066402;28;20035;-74
2021/05/20 00:32:42;;;;;;;5.10;2.50;;;;;;;18.13;62.06;98766.97;5060424;28;20025;-74
2021/05/20 00:35:08;;;;;;;7.15;2.90;;;;;;;17.94;61.74;98773.50;5060674;28;20033;-74
2021/05/20 00:37:34;;;;;;;9.20;2.83;;;;;;;17.88;61.20;98753.00;5050909;28;20103;-68
2021/05/20 00:39:59;;;;;;;4.97;2.60;;;;;;;17.97;60.74;98756.97;5059917;28;20339;-74
2021/05/20 00:42:25;;;;;;;3.70;2.50;;;;;;;18.04;60.12;98760.34;5061529;28;20047;-68
2021/05/20 00:44:59;;;;;;;6.57;2.70;;;;;;;17.92;60.32;98751.50;5059830;28;20033;-69
2021/05/20 00:47:33;;;;;;;4.95;2.45;;;;;;;17.96;60.04;98749.97;5060479;28;20029;-68
2021/05/20 00:50:09;;;;;;;7.18;2.78;;;;;;;17.96;59.69;98767.91;5057716;28;20036;-70
2021/05/20 00:52:36;;;;;;;8.15;2.78;;;;;;;17.98;59.83;98773.84;5057403;28;20061;-68
2021/05/20 00:55:05;;;;;;;8.88;2.53;;;;;;;18.03;59.43;98776.66;5062293;28;20031;-74
2021/05/20 00:57:30;;;;;;;7.88;2.47;;;;;;;18.05;59.48;98779.91;5064038;28;20037;-74
2021/05/20 01:00:11;;;;;;;5.72;2.25;;;;;;;18.04;59.33;98779.09;5061544;28;20078;-72
2021/05/20 01:02:38;;;;;;;5.50;2.28;;;;;;;18.03;59.18;98777.47;5058574;28;20037;-68
2021/05/20 01:05:06;;;;;;;3.50;1.90;;;;;;;17.99;58.81;98765.59;5060831;28;20278;-69
2021/05/20 01:07:31;;;;;;;5.22;2.00;;;;;;;18.04;58.58;98776.41;5060651;28;20061;-74
2021/05/20 01:09:57;;;;;;;7.18;2.25;;;;;;;18.01;57.86;98776.88;5059498;28;20048;-74
2021/05/20 01:12:22;;;;;;;4.53;1.40;;;;;;;18.13;57.84;98772.34;5061025;28;20349;-68
2021/05/20 01:14:48;;;;;;;4.70;2.10;;;;;;;18.25;57.33;98774.19;5059597;28;20020;-68
2021/05/20 01:17:13;;;;;;;10.27;1.95;;;;;;;18.36;56.92;98771.50;5057894;28;20033;-74
2021/05/20 01:19:43;;;;;;;5.22;2.13;;;;;;;18.41;56.53;98771.59;5059966;28;20059;-74
2021/05/20 01:22:10;;;;;;;6.93;2.65;;;;;;;18.37;56.41;98764.25;5062181;28;20041;-74
2021/05/20 01:24:35;;;;;;;9.55;1.73;;;;;;;18.52;56.18;98784.16;5059229;28;20020;-69
2021/05/20 01:27:05;;;;;;;6.53;1.98;;;;;;;18.54;56.19;98781.25;5059715;28;20087;-68
2021/05/20 01:29:32;;;;;;;4.18;1.92;;;;;;;18.59;55.85;98783.22;5060659;28;20100;-74
2021/05/20 01:31:58;;;;;;;5.15;1.85;;;;;;;18.68;55.86;98779.94;5058759;28;20041;-74
2021/05/20 01:34:24;;;;;;;5.63;2.13;;;;;;;18.71;55.58;98768.75;5059317;28;20017;-68
2021/05/20 01:36:49;;;;;;;8.93;2.10;;;;;;;18.79;55.17;98773.75;5059983;28;20032;-69
2021/05/20 01:39:15;;;;;;;9.18;2.20;;;;;;;18.67;55.44;98759.56;5059048;28;20031;-68
2021/05/20 01:41:40;;;;;;;7.13;2.15;;;;;;;18.73;55.50;98769.34;5059686;28;20037;-70
2021/05/20 01:44:06;;;;;;;7.43;2.35;;;;;;;18.72;55.47;98766.88;5058955;28;20036;-69
2021/05/20 01:46:31;;;;;;;5.78;1.98;;;;;;;18.70;55.57;98763.63;5059677;28;20324;-74
2021/05/20 01:48:56;;;;;;;12.38;2.13;;;;;;;18.77;55.48;98772.38;5060038;28;20040;-74
2021/05/20 01:51:22;;;;;;;5.53;2.05;;;;;;;18.76;55.07;98754.66;5059152;28;20039;-74
2021/05/20 01:53:54;;;;;;;7.70;1.95;;;;;;;18.75;55.32;98750.34;5059675;28;20057;-69
2021/05/20 01:56:21;;;;;;;7.30;1.73;;;;;;;18.74;54.88;98746.84;5059709;28;20055;-74
2021/05/20 01:58:48;;;;;;;2.67;1.48;;;;;;;18.67;55.15;98742.66;5057435;28;20028;-74
2021/05/20 02:01:14;;;;;;;7.45;1.50;;;;;;;18.72;55.05;98742.75;5058884;28;20037;-74
2021/05/20 02:03:39;;;;;;;4.28;1.42;;;;;;;18.70;54.93;98742.97;5059836;28;20093;-69
2021/05/20 02:06:06;;;;;;;6.43;2.03;;;;;;;18.75;54.76;98731.56;5058654;28;20044;-68
2021/05/20 02:08:36;;;;;;;2.70;1.33;;;;;;;18.65;54.81;98734.84;5060009;28;20231;-74
2021/05/20 02:11:03;;;;;;;7.18;1.85;;;;;;;18.65;54.60;98740.22;5076594;28;20077;-74
2021/05/20 02:13:29;;;;;;;2.75;1.30;;;;;;;18.90;54.18;98742.59;5062920;28;20112;-69
2021/05/20 02:15:55;;;;;;;3.05;1.50;;;;;;;18.89;53.91;98732.91;5059612;28;20033;-68
2021/05/20 02:18:21;;;;;;;3.78;1.58;;;;;;;18.96;53.77;98730.09;5059794;28;20349;-74
2021/05/20 02:20:46;;;;;;;5.93;1.70;;;;;;;18.98;53.46;98731.47;5059092;28;20056;-69
2021/05/20 02:23:14;;;;;;;4.70;1.80;;;;;;;18.95;53.77;98736.50;5058518;28;20096;-74
2021/05/20 02:25:41;;;;;;;6.45;1.77;;;;;;;18.93;53.47;98738.59;5057854;28;20028;-68
2021/05/20 02:28:06;;;;;;;2.20;1.20;;;;;;;18.81;53.61;98736.78;5058408;28;20366;-74
2021/05/20 02:30:32;;;;;;;3.08;1.25;;;;;;;18.83;53.81;98727.69;5060325;28;20032;-69
2021/05/20 02:32:58;;;;;;;8.90;1.52;;;;;;;18.95;53.36;98731.13;5062096;28;20362;-74
2021/05/20 02:35:24;;;;;;;6.68;1.63;;;;;;;18.87;53.45;98724.28;5059155;28;20047;-69
2021/05/20 02:37:50;;;;;;;10.00;2.03;;;;;;;19.00;53.13;98721.31;5058100;28;20033;-74
2021/05/20 02:40:17;;;;;;;5.57;1.58;;;;;;;18.96;53.40;98728.22;5059259;28;20215;-74
2021/05/20 02:42:43;;;;;;;3.95;1.52;;;;;;;18.98;53.25;98725.28;5058007;28;20083;-74
2021/05/20 02:45:20;;;;;;;6.63;1.30;;;;;;;19.04;52.66;98718.97;5057306;28;20132;-74
2021/05/20 02:47:51;;;;;;;4.35;1.52;;;;;;;18.91;53.20;98724.63;5055557;28;20029;-69
2021/05/20 02:50:21;;;;;;;9.02;1.88;;;;;;;18.86;52.88;98724.53;5058669;28;20052;-74
2021/05/20 02:52:46;;;;;;;7.78;1.33;;;;;;;18.79;52.87;98724.69;5058868;28;20092;-68
2021/05/20 02:55:18;;;;;;;6.53;1.35;;;;;;;18.75;53.03;98718.97;5057618;28;20036;-68
2021/05/20 03:00:38;;;;;;;12.50;1.77;;;;;;;18.72;52.70;98738.19;5044327;28;20208;-68
2021/05/20 03:03:04;;;;;;;5.55;1.40;;;;;;;18.52;52.83;98730.53;5057475;28;20052;-74
2021/05/20 03:05:30;;;;;;;14.43;2.30;;;;;;;18.60;52.59;98740.06;5052140;28;20322;-74
2021/05/20 03:07:56;;;;;;;5.55;1.10;;;;;;;18.50;53.09;98729.16;5058858;28;20025;-72
2021/05/20 03:10:22;;;;;;;5.38;1.60;;;;;;;18.69;52.39;98749.41;5057231;28;20099;-69
2021/05/20 03:12:48;;;;;;;6.40;1.23;;;;;;;18.63;52.48;98738.81;5058304;28;20021;-74
2021/05/20 03:15:14;;;;;;;8.88;1.73;;;;;;;18.68;52.48;98745.09;5061566;28;20037;-69
2021/05/20 03:17:39;;;;;;;7.85;1.65;;;;;;;18.85;52.20;98752.41;5060442;28;20045;-74
2021/05/20 03:20:07;;;;;;;9.73;1.88;;;;;;;18.82;52.04;98745.66;5057231;28;20033;-74
2021/05/20 03:22:33;;;;;;;3.00;1.33;;;;;;;18.77;52.18;98756.28;5058200;28;20037;-74
2021/05/20 03:24:58;;;;;;;12.15;1.40;;;;;;;18.76;52.43;98757.34;5065174;28;20035;-69
2021/05/20 03:27:24;;;;;;;6.75;1.48;;;;;;;18.83;52.27;98758.00;5057427;28;20053;-69
2021/05/20 03:29:49;;;;;;;10.18;1.73;;;;;;;18.88;52.20;98768.03;5058348;28;20041;-69
2021/05/20 03:32:15;;;;;;;7.88;1.77;;;;;;;18.70;52.46;98758.25;5059258;28;20303;-69
2021/05/20 03:34:40;;;;;;;4.22;1.40;;;;;;;18.70;52.49;98767.13;5061166;28;20036;-74
2021/05/20 03:37:06;;;;;;;5.90;1.48;;;;;;;18.91;52.39;98762.19;5058937;28;20039;-73
2021/05/20 03:39:32;;;;;;;7.82;1.65;;;;;;;18.84;52.53;98756.97;5056747;28;20037;-69
2021/05/20 03:41:57;;;;;;;4.82;1.50;;;;;;;18.87;52.07;98751.13;5057200;28;20048;-74
2021/05/20 03:44:23;;;;;;;6.85;1.40;;;;;;;18.92;51.88;98739.66;5061579;28;20196;-68
2021/05/20 03:46:48;;;;;;;5.93;1.48;;;;;;;18.90;52.17;98747.94;5061040;28;20379;-74
2021/05/20 03:49:14;;;;;;;3.70;1.27;;;;;;;18.84;51.86;98762.31;5055349;28;20025;-68
2021/05/20 03:51:39;;;;;;;6.95;1.38;;;;;;;18.76;52.20;98762.69;5058017;28;20021;-74
2021/05/20 03:54:05;;;;;;;7.00;1.40;;;;;;;18.71;52.36;98765.25;5060353;28;20017;-74
2021/05/20 03:56:31;;;;;;;4.60;1.45;;;;;;;18.64;52.63;98768.06;5060759;28;20025;-74
2021/05/20 03:58:56;;;;;;;6.85;1.40;;;;;;;18.66;52.90;98774.00;5061939;28;20314;-73
2021/05/20 04:01:22;;;;;;;8.45;1.48;;;;;;;18.84;52.66;98783.78;5061805;28;20040;-68
2021/05/20 04:03:47;;;;;;;3.88;1.80;;;;;;;18.93;52.54;98784.22;5062767;28;20052;-68
2021/05/20 04:06:13;;;;;;;7.80;1.52;;;;;;;18.86;52.89;98788.91;5057286;28;20318;-68
2021/05/20 04:08:38;;;;;;;6.97;1.80;;;;;;;18.84;52.89;98788.31;5056825;28;20336;-74
2021/05/20 04:11:04;;;;;;;8.00;1.80;;;;;;;18.70;53.26;98777.84;5056710;28;20075;-74
2021/05/20 04:13:31;;;;;;;3.35;1.40;;;;;;;18.74;53.40;98779.03;5056789;28;20348;-69
2021/05/20 04:15:58;;;;;;;8.80;2.10;;;;;;;18.74;53.29;98794.31;5056836;28;20083;-71
2021/05/20 04:18:24;;;;;;;12.05;2.00;;;;;;;18.70;53.47;98799.28;5057598;28;20029;-74
2021/05/20 04:20:50;;;;;;;9.32;1.88;;;;;;;18.76;53.49;98801.06;5056630;28;20067;-68
2021/05/20 04:23:16;;;;;;;6.60;1.73;;;;;;;18.89;52.79;98801.84;5057944;28;20052;-74
2021/05/20 04:25:42;;;;;;;4.43;1.60;;;;;;;18.86;53.07;98799.63;5056390;28;20583;-74
2021/05/20 04:28:07;;;;;;;4.90;1.17;;;;;;;18.78;53.46;98798.13;5056424;28;20418;-69
2021/05/20 04:30:33;;;;;;;9.45;1.73;;;;;;;18.77;53.55;98817.97;5057617;28;20025;-68
2021/05/20 04:32:58;;;;;;;6.55;1.52;;;;;;;18.90;53.49;98825.75;5055208;28;20025;-68
2021/05/20 04:35:24;;;;;;;3.40;1.33;;;;;;;19.21;52.80;98837.06;5055944;28;20307;-69
2021/05/20 04:37:49;;;;;;;6.50;1.45;;;;;;;19.29;52.69;98818.69;5057572;28;20040;-74
2021/05/20 04:40:15;;;;;;;7.32;1.30;;;;;;;19.78;51.82;98832.50;5056330;28;20036;-68
2021/05/20 04:42:40;;;;;;;11.98;1.48;;;;;;;20.19;50.49;98825.88;5057487;28;20406;-69
2021/05/20 04:45:06;;;;;;;5.85;1.70;;;;;;;20.40;48.78;98827.81;5057204;28;20064;-74
2021/05/20 04:47:32;;;;;;;4.80;1.25;;;;;;;20.56;48.80;98828.84;5060476;28;20311;-75
2021/05/20 04:49:57;;;;;;;10.65;2.08;;;;;;;20.60;48.69;98839.91;5056971;28;20025;-68
2021/05/20 04:52:23;;;;;;;11.27;1.73;;;;;;;20.47;48.48;98846.47;5057612;28;20358;-74
2021/05/20 04:54:48;;;;;;;3.83;1.60;;;;;;;20.77;47.96;98851.44;5059680;28;20032;-68
2021/05/20 04:57:14;;;;;;;5.15;1.70;;;;;;;20.89;47.45;98848.66;5060422;28;20070;-74
2021/05/20 04:59:39;;;;;;;3.05;1.15;;;;;;;20.87;47.42;98853.47;5057165;28;20040;-76
2021/05/20 05:02:06;;;;;;;6.93;1.48;;;;;;;20.58;47.83;98853.59;5056095;28;20056;-77
2021/05/20 05:04:31;;;;;;;10.35;1.77;;;;;;;20.55;48.33;98861.38;5056082;28;20071;-71
2021/05/20 05:06:57;;;;;;;4.05;1.30;;;;;;;20.40;48.72;98860.09;5058041;28;20041;-77
2021/05/20 05:09:22;;;;;;;9.07;1.95;;;;;;;20.35;48.89;98851.91;5059531;28;20048;-71
2021/05/20 05:11:47;;;;;;;5.55;2.00;;;;;;;20.56;48.65;98863.00;5060879;28;20331;-77
2021/05/20 05:14:13;;;;;;;6.57;1.42;;;;;;;20.59;48.34;98857.94;5059398;28;20074;-71
2021/05/20 05:16:38;;;;;;;5.18;1.73;;;;;;;20.74;48.27;98873.47;5071320;28;20029;-77
2021/05/20 05:19:04;;;;;;;9.05;1.80;;;;;;;20.71;48.08;98880.16;5061977;28;20033;-76
2021/05/20 05:21:29;;;;;;;9.57;1.90;;;;;;;20.36;48.97;98879.63;5063597;28;20211;-69
2021/05/20 05:23:55;;;;;;;13.52;1.95;;;;;;;20.28;49.83;98874.66;5061659;28;20033;-75
2021/05/20 05:26:24;;;;;;;6.88;1.55;;;;;;;20.08;49.76;98875.16;5060713;28;20345;-68
2021/05/20 05:28:49;;;;;;;11.55;2.30;;;;;;;19.89;50.26;98879.13;5059560;28;20060;-74
2021/05/20 05:31:19;;;;;;;13.32;1.88;;;;;;;20.08;49.94;98875.97;5059325;28;20032;-75
2021/05/20 05:33:45;;;;;;;11.95;2.20;;;;;;;20.39;49.30;98884.53;5063388;28;20036;-69
2021/05/20 05:36:10;;;;;;;8.90;1.88;;;;;;;20.85;48.62;98886.00;5063522;28;20064;-74
2021/05/20 05:38:36;;;;;;;6.63;1.70;;;;;;;21.15;47.56;98890.13;5060394;28;20481;-72
2021/05/20 05:41:02;;;;;;;6.95;1.65;;;;;;;21.37;47.51;98879.38;5059317;28;20043;-72
2021/05/20 05:43:27;;;;;;;6.30;1.80;;;;;;;21.94;46.51;98893.16;5060046;28;20254;-72
2021/05/20 05:45:53;;;;;;;7.65;1.60;;;;;;;22.79;44.87;98884.06;5059014;28;20029;-77
2021/05/20 05:48:18;;;;;;;7.45;1.40;;;;;;;23.59;42.56;98868.50;5060575;28;20039;-74
2021/05/20 05:50:45;;;;;;;4.63;1.55;;;;;;;23.99;41.44;98883.16;5058757;28;20031;-75
2021/05/20 05:53:10;;;;;;;7.45;1.50;;;;;;;24.30;40.19;98879.38;5060655;28;20335;-69
2021/05/20 05:55:36;;;;;;;5.63;1.50;;;;;;;24.74;39.08;98871.44;5059352;28;20035;-75
2021/05/20 05:58:01;;;;;;;6.50;1.70;;;;;;;24.75;38.78;98874.94;5058917;28;20037;-74
2021/05/20 06:00:27;;;;;;;6.30;1.50;;;;;;;24.99;38.34;98873.28;5059827;28;20380;-73
2021/05/20 06:02:52;;;;;;;5.25;1.42;;;;;;;25.33;38.22;98864.47;5058912;28;20040;-75
2021/05/20 06:05:18;;;;;;;7.53;1.45;;;;;;;25.31;37.19;98847.69;5058865;28;20327;-74
2021/05/20 06:07:45;;;;;;;10.27;1.70;;;;;;;24.98;37.40;98860.03;5059992;28;20041;-74
2021/05/20 06:10:11;;;;;;;7.05;1.23;;;;;;;25.20;36.78;98854.25;5058393;28;20258;-70
2021/05/20 06:12:37;;;;;;;5.20;1.45;;;;;;;25.06;36.94;98859.47;5060130;28;20178;-71
2021/05/20 06:15:05;;;;;;;12.25;2.20;;;;;;;25.42;36.22;98852.75;5058341;28;20359;-75
2021/05/20 06:17:30;;;;;;;7.95;1.35;;;;;;;25.88;35.94;98836.19;5059087;28;20044;-70
2021/05/20 06:19:57;;;;;;;10.98;1.77;;;;;;;26.04;35.25;98842.31;5062669;28;20349;-70
2021/05/20 06:22:23;;;;;;;9.13;1.70;;;;;;;26.40;34.77;98856.38;5058439;28;20246;-70
2021/05/20 06:24:49;;;;;;;6.53;1.67;;;;;;;25.87;34.99;98864.41;5059413;28;20033;-75
2021/05/20 06:27:15;;;;;;;4.60;1.27;;;;;;;25.78;35.54;98869.63;5058364;28;20044;-74
2021/05/20 06:29:40;;;;;;;4.28;1.30;;;;;;;25.63;36.04;98863.47;5058214;28;20025;-74
2021/05/20 06:32:06;;;;;;;7.35;1.50;;;;;;;24.76;36.93;98873.84;5059182;28;20025;-70
2021/05/20 06:34:31;;;;;;;4.55;1.58;;;;;;;24.36;37.80;98864.75;5057769;28;20104;-70
2021/05/20 06:37:02;;;;;;;4.80;1.58;;;;;;;23.96;38.89;98878.28;5056771;28;20024;-75
2021/05/20 06:39:28;;;;;;;7.93;1.55;;;;;;;23.66;38.88;98873.63;5058450;28;20052;-69
2021/05/20 06:41:55;;;;;;;4.07;1.40;;;;;;;23.54;39.61;98880.09;5056917;28;20045;-74
2021/05/20 06:44:21;;;;;;;4.35;1.35;;;;;;;23.30;39.96;98878.13;5057826;28;20024;-69
2021/05/20 06:46:46;;;;;;;2.78;0.95;;;;;;;23.22;39.88;98879.44;5061091;28;20028;-70
2021/05/20 06:49:12;;;;;;;5.50;1.55;;;;;;;23.25;40.28;98878.91;5074327;28;20016;-70
2021/05/20 06:51:37;;;;;;;4.43;1.10;;;;;;;23.68;39.86;98876.88;5056726;28;20032;-69
2021/05/20 06:54:03;;;;;;;7.28;1.10;;;;;;;24.44;38.12;98869.63;5056727;28;20029;-71
2021/05/20 06:56:30;;;;;;;10.25;1.70;;;;;;;25.60;36.01;98872.16;5057128;28;20176;-75
2021/05/20 07:01:45;;;;;;;10.15;1.17;;;;;;;25.80;35.85;98863.09;5057203;28;20035;-75
2021/05/20 07:04:10;;;;;;;8.23;1.02;;;;;;;25.30;37.17;98884.00;5061785;28;20053;-75
2021/05/20 07:06:36;;;;;;;2.13;0.88;;;;;;;24.55;37.89;98881.22;5077341;28;20024;-74
2021/05/20 07:09:01;;;;;;;5.25;1.00;;;;;;;24.15;39.21;98885.56;5061457;28;20032;-74
2021/05/20 07:11:30;;;;;;;10.88;1.15;;;;;;;23.93;39.50;98889.59;5061236;28;20021;-70
2021/05/20 07:13:56;;;;;;;4.93;1.27;;;;;;;23.35;40.70;98888.94;5062437;28;20067;-69
2021/05/20 07:16:21;;;;;;;4.40;1.17;;;;;;;23.16;40.99;98888.59;5061548;28;20044;-75
2021/05/20 07:18:47;;;;;;;3.70;1.23;;;;;;;23.03;40.87;98889.91;5076885;28;20033;-75
2021/05/20 07:21:12;;;;;;;3.17;1.52;;;;;;;23.15;41.09;98893.19;5073520;28;20293;-70
2021/05/20 07:23:37;;;;;;;2.60;1.17;;;;;;;23.64;40.83;98886.59;5073506;28;20039;-70
2021/05/20 07:26:03;;;;;;;7.28;1.33;;;;;;;24.06;39.64;98886.41;5076900;28;20029;-75
2021/05/20 07:28:28;;;;;;;4.03;1.20;;;;;;;24.70;37.99;98885.78;5076877;28;20025;-75
2021/05/20 07:30:54;;;;;;;1.88;1.00;;;;;;;25.49;36.91;98882.25;5059838;28;20331;-70
2021/05/20 07:33:21;;;;;;;4.10;0.90;;;;;;;25.95;36.25;98887.38;5061469;28;20054;-70
2021/05/20 07:35:46;;;;;;;3.72;1.13;;;;;;;26.12;35.01;98849.03;5061091;28;20062;-74
2021/05/20 07:38:12;;;;;;;5.50;1.10;;;;;;;26.90;34.11;98854.19;5060761;28;20230;-70
2021/05/20 07:40:37;;;;;;;3.45;1.13;;;;;;;26.75;33.23;98857.91;5059648;28;20368;-75
2021/05/20 07:43:03;;;;;;;4.00;0.90;;;;;;;25.94;34.52;98862.16;5061705;28;20043;-75
2021/05/20 07:45:28;;;;;;;2.45;0.98;;;;;;;25.53;35.54;98871.66;5061544;28;20322;-71
2021/05/20 07:47:54;;;;;;;7.13;1.25;;;;;;;24.90;37.05;98872.19;5061289;28;20044;-75
2021/05/20 07:50:19;;;;;;;3.38;1.30;;;;;;;24.66;37.42;98877.41;5061206;28;20239;-75
2021/05/20 07:52:45;;;;;;;6.10;1.38;;;;;;;25.42;36.38;98865.50;5060858;28;20029;-70
2021/05/20 07:55:11;;;;;;;4.38;1.30;;;;;;;25.70;35.55;98864.00;5060965;28;20040;-74
2021/05/20 07:57:37;;;;;;;4.95;1.23;;;;;;;25.71;35.41;98860.19;5076918;28;20137;-74
2021/05/20 08:00:05;;;;;;;4.10;1.13;;;;;;;26.24;34.58;98857.59;5061018;28;20033;-70
2021/05/20 08:02:41;;;;;;;4.32;1.00;;;;;;;26.45;34.32;98860.97;5075090;28;20335;-75
2021/05/20 08:05:11;;;;;;;3.30;1.13;;;;;;;26.82;33.64;98869.22;5060411;28;20541;-74
2021/05/20 08:12:48;;;;;;;4.82;1.30;;;;;;;26.92;33.17;98868.31;5074829;28;20099;-70
2021/05/20 08:15:13;;;;;;;3.60;1.50;;;;;;;27.53;32.61;98875.69;5079813;28;20041;-70
2021/05/20 08:17:39;;;;;;;2.50;1.10;;;;;;;27.69;32.18;98871.69;5078391;28;20037;-71
2021/05/20 08:20:05;;;;;;;4.03;1.00;;;;;;;27.83;31.35;98883.44;5059317;28;20051;-76
2021/05/20 08:22:31;;;;;;;4.38;1.20;;;;;;;27.84;31.77;98882.34;5060964;28;20035;-70
2021/05/20 08:24:58;;;;;;;5.07;1.38;;;;;;;26.99;31.59;98883.19;5060755;28;20037;-69
2021/05/20 08:27:23;;;;;;;11.23;1.25;;;;;;;26.33;32.48;98886.56;5060385;28;20032;-74
2021/05/20 08:29:49;;;;;;;3.45;0.90;;;;;;;26.46;31.64;98881.56;5060160;28;20059;-70
2021/05/20 08:32:15;;;;;;;7.75;0.60;;;;;;;26.50;32.69;98891.56;5075634;28;20029;-74
2021/05/20 08:34:41;;;;;;;1.23;0.80;;;;;;;26.79;32.85;98890.72;5060082;28;20037;-74
2021/05/20 08:37:06;;;;;;;5.20;0.98;;;;;;;26.71;31.11;98900.31;5060239;28;20029;-74
2021/05/20 08:39:32;;;;;;;12.07;1.00;;;;;;;26.43;29.17;98912.81;5075873;28;20298;-74
2021/05/20 08:41:58;;;;;;;9.73;0.88;;;;;;;26.64;29.72;98892.50;5076163;28;20036;-69
2021/05/20 08:44:29;;;;;;;13.00;1.30;;;;;;;26.81;28.95;98893.97;5063894;28;20137;-70
2021/05/20 08:46:58;;;;;;;18.33;1.15;;;;;;;26.69;29.36;98895.16;5063911;28;20041;-69
2021/05/20 08:49:25;;;;;;;13.02;0.98;;;;;;;26.59;31.17;98902.63;5063995;28;20056;-75
2021/05/20 08:51:51;;;;;;;11.32;1.38;;;;;;;26.47;30.65;98910.34;5063743;28;20120;-70
2021/05/20 08:54:18;;;;;;;11.90;1.30;;;;;;;26.38;31.06;98919.09;5063571;28;20028;-69
2021/05/20 08:56:45;;;;;;;10.95;1.13;;;;;;;26.19;31.88;98925.47;5064148;28;20215;-74
2021/05/20 08:59:11;;;;;;;13.52;1.10;;;;;;;25.95;31.68;98922.66;5063469;28;20029;-69
2021/05/20 09:01:39;;;;;;;19.95;1.13;;;;;;;25.96;31.00;98929.69;5063260;28;20064;-75
2021/05/20 09:04:05;;;;;;;11.73;0.85;;;;;;;25.44;30.92;98917.53;5075493;28;20250;-69
2021/05/20 09:06:45;;;;;;;3.85;0.63;;;;;;;25.35;31.61;98946.28;5059123;28;20075;-74
2021/05/20 09:09:17;;;;;;;4.80;0.90;;;;;;;25.60;32.32;98935.31;5061501;28;20079;-74
2021/05/20 09:11:54;;;;;;;12.57;0.93;;;;;;;25.69;31.96;98951.84;5061134;28;20046;-75
2021/05/20 09:14:35;;;;;;;10.65;0.93;;;;;;;25.65;32.19;98954.31;5058972;28;20029;-69
2021/05/20 09:17:13;;;;;;;13.85;0.80;;;;;;;25.92;31.90;98951.16;5058469;28;20051;-74
2021/05/20 09:19:41;;;;;;;2.70;0.50;;;;;;;26.08;32.55;98951.88;5058766;28;20033;-74
2021/05/20 09:22:12;;;;;;;15.90;1.38;;;;;;;25.54;32.40;98960.03;5060145;28;20258;-69
2021/05/20 09:24:49;;;;;;;9.90;1.08;;;;;;;25.17;32.55;98976.72;5074663;28;20020;-70
2021/05/20 09:27:36;;;;;;;23.02;1.63;;;;;;;25.20;32.22;98987.00;5053853;28;20240;-69
2021/05/20 09:30:21;;;;;;;11.15;1.02;;;;;;;24.99;32.52;98976.22;5058429;28;20020;-69
2021/05/20 09:32:58;;;;;;;5.63;0.98;;;;;;;25.19;33.00;98979.94;5058933;28;20029;-74
2021/05/20 09:35:29;;;;;;;6.65;0.65;;;;;;;24.92;31.83;98972.09;5074754;28;20036;-74
2021/05/20 09:37:56;;;;;;;7.55;0.70;;;;;;;24.12;33.12;98969.16;5059844;28;20045;-74
2021/05/20 09:40:25;;;;;;;7.07;0.70;;;;;;;23.97;34.26;98983.47;5074675;28;20032;-69
2021/05/20 09:42:51;;;;;;;5.47;0.50;;;;;;;24.18;33.64;98995.13;5073957;28;20028;-69
2021/05/20 09:45:21;;;;;;;4.90;0.70;;;;;;;24.30;34.06;98978.66;5060029;28;20017;-69
2021/05/20 09:47:48;;;;;;;3.53;0.55;;;;;;;24.66;32.51;98990.28;5059030;28;20104;-74
2021/05/20 09:50:19;;;;;;;7.38;0.40;;;;;;;24.16;32.92;98986.47;5058488;28;20040;-69
2021/05/20 09:52:44;;;;;;;3.17;0.43;;;;;;;24.20;32.71;98987.56;5058204;28;20208;-71
2021/05/20 09:55:22;;;;;;;6.32;0.60;;;;;;;24.17;33.60;98994.31;5060219;28;20028;-69
2021/05/20 09:57:48;;;;;;;1.95;0.63;;;;;;;23.92;33.64;98974.50;5059209;28;20036;-74
2021/05/20 10:00:17;;;;;;;1.55;0.30;;;;;;;23.84;33.17;98987.47;5075943;28;20021;-69
2021/05/20 10:02:46;;;;;;;6.00;0.40;;;;;;;23.60;33.42;98975.50;5059346;28;20112;-69
2021/05/20 10:05:28;;;;;;;7.05;0.60;;;;;;;23.25;33.40;98982.38;5059453;28;20198;-69
2021/05/20 10:07:55;;;;;;;3.03;0.38;;;;;;;23.46;33.07;98987.84;5058042;28;20037;-75
2021/05/20 10:10:22;;;;;;;2.53;0.30;;;;;;;23.47;32.76;98992.19;5058836;28;20298;-69
2021/05/20 10:12:47;;;;;;;0.90;0.30;;;;;;;23.36;33.37;98987.81;5059308;28;20315;-75
2021/05/20 10:15:18;;;;;;;3.78;0.57;;;;;;;23.37;33.77;99000.25;5058194;28;20036;-69
2021/05/20 10:17:44;;;;;;;1.83;0.55;;;;;;;23.33;33.85;98989.16;5060620;28;20031;-74
2021/05/20 10:20:12;;;;;;;4.55;0.43;;;;;;;23.35;33.95;98997.00;5061517;28;20028;-69
2021/05/20 10:22:38;;;;;;;2.97;0.50;;;;;;;23.45;34.20;98991.63;5058923;28;20091;-74
2021/05/20 10:25:05;;;;;;;4.10;0.43;;;;;;;23.55;34.17;98995.22;5057932;28;20036;-69
2021/05/20 10:27:31;;;;;;;3.92;0.57;;;;;;;23.61;33.61;98997.94;5057768;28;20389;-74
2021/05/20 10:29:58;;;;;;;3.85;0.32;;;;;;;23.58;33.94;98980.38;5058092;28;20071;-69
2021/05/20 10:32:24;;;;;;;3.60;0.45;;;;;;;23.48;33.92;98988.41;5058955;28;20040;-74
2021/05/20 10:35:19;;;;;;;3.38;0.30;;;;;;;23.36;33.86;98982.41;5057818;28;20029;-74
2021/05/20 10:37:54;;;;;;;6.13;0.50;;;;;;;23.04;33.73;98972.53;5040360;28;20388;-71
2021/05/20 10:40:20;;;;;;;8.20;0.40;;;;;;;23.10;35.14;98998.50;5058405;28;20211;-76
2021/05/20 10:42:45;;;;;;;4.90;0.50;;;;;;;23.06;35.06;98999.28;5073081;28;20028;-71
2021/05/20 10:45:24;;;;;;;1.55;0.35;;;;;;;22.96;34.97;98991.13;5057595;28;20087;-76
2021/05/20 10:48:05;;;;;;;2.47;0.30;;;;;;;23.02;35.41;98992.78;5056713;28;20254;-76
2021/05/20 10:50:45;;;;;;;4.10;0.40;;;;;;;23.20;34.26;98976.94;5057583;28;20036;-71
2021/05/20 10:53:11;;;;;;;0.47;0.28;;;;;;;23.13;35.21;98972.84;5058264;28;20108;-71
2021/05/20 10:55:38;;;;;;;4.40;0.75;;;;;;;23.38;32.89;98947.84;5057393;28;20025;-76
2021/05/20 10:58:04;;;;;;;6.85;0.80;;;;;;;23.52;33.00;98976.81;5057465;28;20044;-76
2021/05/20 11:00:42;;;;;;;3.83;0.38;;;;;;;23.42;34.30;98979.47;5056892;28;20063;-77
2021/05/20 11:03:10;;;;;;;3.33;0.30;;;;;;;23.55;34.16;98959.28;5056014;28;20036;-77
2021/05/20 11:05:42;;;;;;;1.75;0.43;;;;;;;23.54;34.26;98977.38;5056322;28;20050;-72
2021/05/20 11:08:31;;;;;;;3.13;0.70;;;;;;;23.62;33.95;98981.47;5057516;28;20036;-71
2021/05/20 11:10:59;;;;;;;0.80;0.32;;;;;;;23.52;33.61;98968.69;5059385;28;20056;-71
2021/05/20 11:13:38;;;;;;;3.20;0.55;;;;;;;23.42;32.05;98965.94;5060918;28;20041;-77
2021/05/20 11:16:14;;;;;;;4.50;0.35;;;;;;;23.59;32.96;98975.78;5057919;28;20066;-77
2021/05/20 11:18:40;;;;;;;5.20;0.50;;;;;;;23.71;31.59;98950.13;5057673;28;20100;-77
2021/05/20 11:21:06;;;;;;;1.15;0.35;;;;;;;23.68;31.92;98934.44;5057515;28;20111;-71
2021/05/20 11:23:34;;;;;;;1.60;0.40;;;;;;;23.76;31.59;98942.03;5057176;28;20041;-77
2021/05/20 11:26:17;;;;;;;4.43;0.60;;;;;;;23.74;31.95;98954.19;5060145;28;20040;-71
2021/05/20 11:28:55;;;;;;;2.35;0.40;;;;;;;23.93;31.29;98932.88;5060407;28;20039;-77
2021/05/20 11:31:23;;;;;;;3.55;0.40;;;;;;;23.83;30.71;98941.78;5057485;28;20108;-72
2021/05/20 11:36:47;;;;;;;3.72;0.57;;;;;;;23.98;31.02;98925.59;5059824;28;20060;-71
2021/05/20 11:39:15;;;;;;;8.38;0.88;;;;;;;24.03;30.95;98935.59;5057427;28;20366;-76
2021/05/20 11:41:43;;;;;;;4.57;0.77;;;;;;;23.81;30.13;98938.53;5056522;28;20044;-71
2021/05/20 11:44:12;;;;;;;1.83;0.50;;;;;;;23.92;30.68;98942.06;5056931;28;20037;-76
2021/05/20 11:46:59;;;;;;;1.00;0.50;;;;;;;24.04;30.99;98935.34;5055761;28;20096;-72